createdAt,value
2023-04-15T00:00:58.347Z,49.37
2023-04-15T00:03:25.736Z,49.33
2023-04-15T00:05:53.022Z,49.67
2023-04-15T00:08:20.625Z,49.34
2023-04-15T00:10:47.924Z,49.36
2023-04-15T00:13:15.448Z,49.23
2023-04-15T00:15:43.388Z,49.54
2023-04-15T00:18:10.376Z,49.48
2023-04-15T00:20:37.729Z,49.52
2023-04-15T00:23:05.640Z,49.44
2023-04-15T00:25:33.105Z,49.36
2023-04-15T00:27:59.996Z,49.55
2023-04-15T00:30:27.081Z,49.41
2023-04-15T00:32:53.943Z,49.61
2023-04-15T00:35:21.737Z,49.43
2023-04-15T00:37:48.559Z,49.30
2023-04-15T00:40:15.773Z,49.50
2023-04-15T00:42:42.505Z,49.47
2023-04-15T00:45:09.874Z,49.47
2023-04-15T00:47:37.424Z,49.32
2023-04-15T00:50:05.140Z,49.49
2023-04-15T00:52:32.073Z,49.64
2023-04-15T00:54:59.648Z,49.42
2023-04-15T00:57:27.207Z,49.64
2023-04-15T00:59:54.260Z,49.48
2023-04-15T01:02:21.125Z,49.61
2023-04-15T01:04:48.603Z,49.34
2023-04-15T01:07:15.433Z,49.45
2023-04-15T01:09:42.605Z,49.43
2023-04-15T01:12:12.952Z,49.42
2023-04-15T01:14:39.991Z,49.53
2023-04-15T01:17:07.480Z,49.53
2023-04-15T01:19:36.854Z,49.45
2023-04-15T01:22:04.006Z,49.65
2023-04-15T01:24:32.101Z,49.43
2023-04-15T01:26:59.354Z,49.54
2023-04-15T01:29:27.480Z,49.45
2023-04-15T01:31:55.159Z,49.50
2023-04-15T01:34:22.357Z,49.46
2023-04-15T01:36:49.230Z,49.52
2023-04-15T01:39:16.352Z,49.72
2023-04-15T01:41:43.133Z,49.30
2023-04-15T01:44:10.168Z,49.43
2023-04-15T01:46:37.143Z,49.52
2023-04-15T01:49:04.286Z,49.46
2023-04-15T01:51:31.029Z,49.41
2023-04-15T01:53:58.171Z,49.39
2023-04-15T01:56:25.453Z,49.70
2023-04-15T01:58:52.879Z,49.47
2023-04-15T02:01:20.089Z,49.12
2023-04-15T02:03:48.033Z,49.45
2023-04-15T02:06:15.092Z,49.43
2023-04-15T02:08:42.270Z,49.50
2023-04-15T02:11:09.441Z,49.32
2023-04-15T02:13:36.982Z,49.35
2023-04-15T02:16:04.155Z,49.30
2023-04-15T02:18:31.640Z,49.17
2023-04-15T02:20:58.887Z,49.33
2023-04-15T02:23:26.142Z,49.47
2023-04-15T02:25:53.363Z,49.55
2023-04-15T02:28:21.963Z,49.31
2023-04-15T02:30:52.740Z,49.12
2023-04-15T02:33:21.353Z,49.15
2023-04-15T02:35:48.176Z,49.30
2023-04-15T02:38:16.861Z,49.23
2023-04-15T02:40:43.606Z,49.00
2023-04-15T02:43:10.673Z,49.29
2023-04-15T02:45:37.507Z,49.24
2023-04-15T02:48:06.721Z,49.22
2023-04-15T02:50:33.641Z,49.30
2023-04-15T02:53:01.719Z,49.17
2023-04-15T02:55:29.116Z,49.16
2023-04-15T02:57:57.262Z,49.47
2023-04-15T03:00:25.471Z,49.33
2023-04-15T03:02:56.628Z,49.22
2023-04-15T03:05:25.443Z,49.29
2023-04-15T03:07:52.740Z,49.23
2023-04-15T03:10:20.103Z,49.07
2023-04-15T03:12:47.228Z,49.41
2023-04-15T03:15:14.015Z,49.25
2023-04-15T03:17:41.163Z,49.35
2023-04-15T03:20:08.839Z,49.47
2023-04-15T03:22:36.039Z,49.44
2023-04-15T03:25:02.859Z,49.49
2023-04-15T03:27:30.007Z,49.26
2023-04-15T03:29:56.914Z,49.14
2023-04-15T03:32:24.234Z,49.60
2023-04-15T03:34:51.118Z,49.52
2023-04-15T03:37:18.149Z,49.53
2023-04-15T03:39:44.988Z,49.43
2023-04-15T03:42:12.121Z,49.47
2023-04-15T03:44:38.959Z,49.43
2023-04-15T03:47:06.162Z,49.50
2023-04-15T03:49:32.914Z,49.65
2023-04-15T03:52:00.061Z,49.92
2023-04-15T03:54:26.831Z,49.77
2023-04-15T03:56:53.928Z,49.49
2023-04-15T03:59:20.662Z,49.49
2023-04-15T04:01:47.887Z,49.57
2023-04-15T04:04:14.832Z,49.48
2023-04-15T04:06:41.964Z,49.58
2023-04-15T04:09:08.699Z,49.72
2023-04-15T04:11:35.847Z,49.40
2023-04-15T04:14:02.584Z,49.17
2023-04-15T04:16:29.729Z,49.56
2023-04-15T04:18:56.569Z,49.53
2023-04-15T04:21:23.674Z,49.43
2023-04-15T04:23:50.755Z,49.46
2023-04-15T04:26:17.896Z,49.45
2023-04-15T04:28:44.744Z,49.41
2023-04-15T04:31:11.927Z,49.52
2023-04-15T04:33:38.702Z,49.49
2023-04-15T04:36:06.008Z,49.49
2023-04-15T04:38:32.803Z,49.66
2023-04-15T04:40:59.874Z,49.20
2023-04-15T04:43:27.124Z,49.42
2023-04-15T04:45:54.265Z,49.39
2023-04-15T04:48:21.336Z,49.20
2023-04-15T04:50:48.496Z,49.31
2023-04-15T04:53:15.307Z,49.33
2023-04-15T04:55:42.507Z,49.20
2023-04-15T04:58:09.302Z,49.48
2023-04-15T05:00:37.948Z,49.31
2023-04-15T05:03:04.868Z,49.66
2023-04-15T05:05:32.089Z,49.63
2023-04-15T05:07:58.863Z,49.60
2023-04-15T05:10:26.201Z,49.74
2023-04-15T05:12:52.989Z,49.60
2023-04-15T05:15:20.470Z,49.28
2023-04-15T05:17:47.318Z,49.67
2023-04-15T05:20:14.597Z,49.57
2023-04-15T05:22:41.400Z,49.84
2023-04-15T05:25:08.826Z,49.84
2023-04-15T05:27:36.120Z,49.82
2023-04-15T05:30:03.388Z,49.41
2023-04-15T05:32:30.228Z,49.53
2023-04-15T05:34:57.361Z,49.60
2023-04-15T05:37:24.098Z,49.86
2023-04-15T05:39:51.172Z,49.80
2023-04-15T05:42:17.982Z,49.85
2023-04-15T05:44:45.067Z,49.83
2023-04-15T05:47:11.952Z,49.98
2023-04-15T05:49:39.027Z,49.89
2023-04-15T05:52:05.929Z,49.49
2023-04-15T05:54:33.115Z,49.32
2023-04-15T05:56:59.918Z,49.10
2023-04-15T05:59:28.377Z,49.05
2023-04-15T06:01:55.285Z,49.13
2023-04-15T06:04:22.872Z,49.13
2023-04-15T06:06:49.778Z,49.25
2023-04-15T06:09:16.924Z,49.10
2023-04-15T06:11:43.707Z,49.40
2023-04-15T06:14:10.869Z,49.17
2023-04-15T06:16:37.917Z,48.96
2023-04-15T06:19:05.229Z,48.82
2023-04-15T06:21:31.981Z,48.61
2023-04-15T06:24:01.526Z,48.49
2023-04-15T06:26:28.446Z,48.58
2023-04-15T06:28:55.800Z,48.13
2023-04-15T06:31:22.938Z,48.32
2023-04-15T06:33:50.062Z,48.39
2023-04-15T06:36:16.896Z,48.31
2023-04-15T06:38:44.068Z,48.41
2023-04-15T06:41:10.901Z,48.57
2023-04-15T06:43:37.989Z,48.07
2023-04-15T06:46:04.882Z,47.75
2023-04-15T06:48:32.306Z,48.03
2023-04-15T06:50:59.064Z,48.29
2023-04-15T06:53:28.100Z,47.91
2023-04-15T06:55:54.906Z,47.79
2023-04-15T06:58:22.286Z,47.65
2023-04-15T07:00:49.252Z,47.71
2023-04-15T07:03:16.536Z,47.85
2023-04-15T07:05:43.562Z,47.57
2023-04-15T07:08:10.732Z,47.76
2023-04-15T07:10:38.638Z,47.83
2023-04-15T07:13:07.111Z,47.72
2023-04-15T07:15:33.987Z,47.63
2023-04-15T07:18:01.819Z,47.53
2023-04-15T07:20:28.624Z,47.65
2023-04-15T07:22:55.736Z,47.78
2023-04-15T07:25:22.909Z,47.41
2023-04-15T07:27:50.086Z,47.43
2023-04-15T07:30:16.979Z,47.39
2023-04-15T07:32:44.153Z,46.94
2023-04-15T07:35:11.693Z,47.17
2023-04-15T07:37:38.883Z,46.92
2023-04-15T07:40:07.494Z,46.91
2023-04-15T07:42:34.784Z,47.28
2023-04-15T07:45:01.620Z,47.15
2023-04-15T07:47:28.860Z,46.77
2023-04-15T07:49:55.728Z,46.99
2023-04-15T07:52:22.809Z,46.76
2023-04-15T07:54:49.617Z,46.55
2023-04-15T07:57:17.882Z,46.28
2023-04-15T07:59:44.673Z,46.63
2023-04-15T08:02:12.013Z,46.66
2023-04-15T08:04:39.531Z,46.49
2023-04-15T08:07:07.139Z,46.42
2023-04-15T08:09:34.090Z,46.20
2023-04-15T08:12:01.215Z,46.17
2023-04-15T08:14:28.187Z,46.09
2023-04-15T08:16:55.376Z,45.74
2023-04-15T08:19:23.007Z,45.57
2023-04-15T08:21:51.215Z,46.02
2023-04-15T08:24:18.050Z,45.65
2023-04-15T08:26:46.974Z,45.08
2023-04-15T08:29:13.953Z,45.22
2023-04-15T08:31:41.118Z,45.51
2023-04-15T08:34:07.908Z,45.28
2023-04-15T08:36:35.237Z,44.80
2023-04-15T08:39:46.159Z,44.68
2023-04-15T08:42:17.416Z,44.24
2023-04-15T08:44:44.771Z,44.10
2023-04-15T08:47:13.676Z,44.11
2023-04-15T08:49:41.801Z,44.67
2023-04-15T08:52:09.432Z,44.69
2023-04-15T08:54:54.389Z,44.66
2023-04-15T08:57:21.874Z,44.76
2023-04-15T08:59:49.657Z,44.79
2023-04-15T09:02:17.346Z,45.27
2023-04-15T09:04:44.311Z,45.26
2023-04-15T09:07:11.652Z,45.34
2023-04-15T09:09:40.422Z,45.13
2023-04-15T09:12:08.690Z,45.03
2023-04-15T09:14:35.697Z,45.35
2023-04-15T09:17:04.284Z,45.30
2023-04-15T09:19:31.616Z,45.02
2023-04-15T09:21:59.511Z,45.22
2023-04-15T09:24:27.165Z,45.39
2023-04-15T09:26:54.910Z,45.25
2023-04-15T09:29:21.851Z,45.28
2023-04-15T09:31:49.171Z,45.15
2023-04-15T09:34:16.201Z,45.00
2023-04-15T09:36:46.424Z,45.22
2023-04-15T09:39:13.681Z,44.76
2023-04-15T09:41:41.033Z,45.36
2023-04-15T09:44:07.816Z,45.08
2023-04-15T09:46:42.667Z,45.05
2023-04-15T09:49:10.401Z,44.94
2023-04-15T09:51:37.818Z,44.99
2023-04-15T09:54:04.789Z,44.55
2023-04-15T09:56:37.417Z,44.75
2023-04-15T09:59:07.360Z,44.89
2023-04-15T10:01:34.878Z,44.52
2023-04-15T10:04:05.465Z,44.90
2023-04-15T10:06:33.044Z,44.95
2023-04-15T10:08:59.915Z,44.70
2023-04-15T10:11:31.623Z,44.73
2023-04-15T10:13:58.674Z,44.67
2023-04-15T10:16:27.723Z,44.70
2023-04-15T10:18:58.615Z,44.74
2023-04-15T10:21:25.758Z,44.55
2023-04-15T10:23:52.830Z,44.21
2023-04-15T10:26:19.977Z,44.04
2023-04-15T10:28:48.323Z,44.11
2023-04-15T10:31:15.561Z,43.90
2023-04-15T10:33:43.091Z,44.19
2023-04-15T10:36:10.395Z,44.11
2023-04-15T10:38:44.518Z,43.71
2023-04-15T10:41:24.624Z,43.34
2023-04-15T10:44:04.666Z,43.08
2023-04-15T10:46:42.124Z,43.05
2023-04-15T10:49:11.133Z,43.12
2023-04-15T10:51:42.818Z,43.41
2023-04-15T10:54:16.199Z,43.50
2023-04-15T10:56:46.345Z,43.42
2023-04-15T10:59:13.154Z,43.23
2023-04-15T11:02:01.586Z,43.27
2023-04-15T11:05:00.101Z,43.16
2023-04-15T11:07:46.955Z,42.90
2023-04-15T11:10:13.768Z,43.24
2023-04-15T11:12:41.295Z,43.22
2023-04-15T11:15:27.139Z,42.64
2023-04-15T11:17:54.381Z,42.54
2023-04-15T11:20:21.289Z,42.61
2023-04-15T11:22:52.534Z,42.40
2023-04-15T11:25:35.758Z,42.23
2023-04-15T11:28:03.673Z,42.54
2023-04-15T11:30:32.385Z,42.53
2023-04-15T11:33:01.336Z,42.51
2023-04-15T11:35:28.533Z,42.33
2023-04-15T11:37:55.859Z,41.47
2023-04-15T11:40:23.792Z,41.96
2023-04-15T11:43:12.780Z,41.95
2023-04-15T11:45:59.207Z,41.99
2023-04-15T11:48:33.590Z,41.54
2023-04-15T11:51:07.232Z,41.45
2023-04-15T11:53:47.792Z,40.84
2023-04-15T11:56:22.362Z,40.28
2023-04-15T11:58:52.792Z,41.11
2023-04-15T12:01:19.956Z,41.09
2023-04-15T12:03:47.450Z,40.97
2023-04-15T12:06:24.576Z,40.58
2023-04-15T12:09:03.818Z,41.01
2023-04-15T12:11:37.748Z,41.21
2023-04-15T12:14:26.889Z,41.05
2023-04-15T12:17:04.832Z,41.55
2023-04-15T12:19:35.673Z,41.44
2023-04-15T12:22:04.630Z,42.11
2023-04-15T12:24:36.023Z,41.85
2023-04-15T12:27:07.247Z,41.69
2023-04-15T12:29:35.278Z,41.02
2023-04-15T12:32:06.112Z,41.39
2023-04-15T12:34:34.868Z,41.41
2023-04-15T12:37:02.790Z,40.47
2023-04-15T12:39:36.132Z,39.32
2023-04-15T12:42:04.404Z,39.81
2023-04-15T12:44:31.744Z,40.16
2023-04-15T12:47:00.041Z,40.25
2023-04-15T12:49:27.493Z,39.29
2023-04-15T12:51:56.307Z,39.62
2023-04-15T12:54:23.400Z,40.08
2023-04-15T12:56:50.598Z,41.11
2023-04-15T12:59:18.647Z,40.93
2023-04-15T13:01:46.634Z,40.72
2023-04-15T13:04:14.204Z,41.08
2023-04-15T13:06:41.116Z,40.71
2023-04-15T13:09:08.305Z,40.55
2023-04-15T13:11:35.829Z,40.27
2023-04-15T13:14:04.277Z,40.47
2023-04-15T13:16:32.152Z,40.05
2023-04-15T13:18:59.917Z,39.77
2023-04-15T13:21:27.373Z,40.33
2023-04-15T13:23:54.605Z,39.70
2023-04-15T13:26:21.380Z,40.36
2023-04-15T13:28:48.596Z,39.79
2023-04-15T13:31:15.892Z,40.23
2023-04-15T13:33:43.036Z,39.60
2023-04-15T13:36:09.872Z,39.54
2023-04-15T13:38:36.939Z,40.00
2023-04-15T13:41:03.944Z,39.67
2023-04-15T13:43:33.662Z,39.88
2023-04-15T13:46:00.726Z,39.55
2023-04-15T13:48:28.506Z,40.30
2023-04-15T13:50:55.497Z,40.16
2023-04-15T13:53:38.373Z,40.75
2023-04-15T13:56:09.269Z,40.04
2023-04-15T13:58:37.101Z,40.57
2023-04-15T14:01:05.816Z,40.44
2023-04-15T14:03:34.984Z,40.20
2023-04-15T14:06:02.181Z,40.53
2023-04-15T14:08:29.855Z,40.51
2023-04-15T14:10:57.712Z,40.99
2023-04-15T14:13:25.038Z,40.30
2023-04-15T14:15:52.030Z,40.19
2023-04-15T14:18:19.117Z,39.78
2023-04-15T14:20:46.050Z,39.68
2023-04-15T14:23:13.159Z,39.79
2023-04-15T14:25:39.923Z,39.75
2023-04-15T14:28:07.014Z,39.85
2023-04-15T14:30:33.781Z,40.14
2023-04-15T14:33:01.036Z,40.08
2023-04-15T14:35:28.041Z,39.59
2023-04-15T14:37:55.713Z,40.10
2023-04-15T14:40:22.663Z,40.22
2023-04-15T14:42:49.894Z,39.98
2023-04-15T14:45:17.704Z,39.96
2023-04-15T14:47:45.062Z,39.97
2023-04-15T14:50:12.147Z,39.84
2023-04-15T14:52:39.302Z,39.76
2023-04-15T14:55:07.314Z,39.71
2023-04-15T14:57:34.345Z,40.11
2023-04-15T15:00:01.657Z,40.19
2023-04-15T15:02:38.393Z,40.54
2023-04-15T15:05:06.743Z,40.70
2023-04-15T15:07:34.009Z,40.35
2023-04-15T15:10:00.857Z,40.21
2023-04-15T15:12:27.924Z,40.23
2023-04-15T15:14:55.424Z,40.23
2023-04-15T15:17:22.464Z,40.40
2023-04-15T15:19:49.317Z,40.48
2023-04-15T15:22:17.305Z,40.59
2023-04-15T15:24:45.285Z,40.13
2023-04-15T15:27:12.370Z,39.93
2023-04-15T15:29:39.299Z,40.01
2023-04-15T15:32:06.609Z,40.48
2023-04-15T15:34:33.394Z,40.15
2023-04-15T15:37:00.837Z,39.90
2023-04-15T15:39:27.744Z,40.37
2023-04-15T15:41:55.053Z,39.99
2023-04-15T15:44:21.834Z,39.66
2023-04-15T15:46:52.399Z,39.14
2023-04-15T15:49:19.908Z,38.96
2023-04-15T15:51:47.064Z,38.71
2023-04-15T15:54:13.815Z,38.27
2023-04-15T15:56:42.238Z,38.45
2023-04-15T15:59:09.101Z,38.44
2023-04-15T16:01:36.379Z,38.58
2023-04-15T16:04:03.510Z,38.88
2023-04-15T16:06:33.241Z,39.29
2023-04-15T16:09:01.987Z,38.83
2023-04-15T16:11:29.607Z,39.67
2023-04-15T16:13:56.505Z,39.12
2023-04-15T16:16:24.322Z,39.16
2023-04-15T16:18:51.242Z,39.43
2023-04-15T16:21:19.564Z,39.13
2023-04-15T16:23:46.623Z,38.94
2023-04-15T16:26:14.029Z,39.27
2023-04-15T16:28:40.825Z,39.59
2023-04-15T16:31:07.896Z,40.03
2023-04-15T16:33:34.635Z,39.46
2023-04-15T16:36:01.734Z,39.83
2023-04-15T16:38:28.519Z,39.85
2023-04-15T16:40:56.304Z,40.24
2023-04-15T16:43:23.161Z,39.89
2023-04-15T16:45:51.412Z,39.87
2023-04-15T16:48:19.155Z,40.37
2023-04-15T16:50:46.360Z,40.21
2023-04-15T16:53:14.883Z,40.23
2023-04-15T16:55:41.948Z,40.91
2023-04-15T16:58:08.710Z,40.75
2023-04-15T17:00:36.857Z,41.15
2023-04-15T17:03:04.084Z,40.74
2023-04-15T17:05:31.430Z,41.10
2023-04-15T17:07:58.569Z,40.98
2023-04-15T17:10:25.883Z,41.43
2023-04-15T17:12:52.912Z,41.37
2023-04-15T17:15:20.115Z,41.73
2023-04-15T17:17:46.989Z,41.42
2023-04-15T17:20:14.314Z,41.98
2023-04-15T17:22:41.156Z,42.03
2023-04-15T17:25:08.498Z,41.63
2023-04-15T17:27:35.646Z,41.30
2023-04-15T17:30:02.716Z,41.57
2023-04-15T17:32:32.051Z,41.80
2023-04-15T17:34:59.312Z,42.39
2023-04-15T17:37:26.822Z,42.17
2023-04-15T17:39:53.880Z,42.18
2023-04-15T17:42:22.701Z,42.13
2023-04-15T17:44:49.934Z,41.89
2023-04-15T17:47:17.111Z,42.37
2023-04-15T17:49:44.280Z,42.16
2023-04-15T17:52:11.391Z,41.97
2023-04-15T17:54:38.505Z,42.10
2023-04-15T17:57:05.532Z,42.25
2023-04-15T17:59:33.822Z,42.02
2023-04-15T18:02:00.658Z,42.17
2023-04-15T18:04:28.419Z,42.42
2023-04-15T18:06:55.317Z,42.22
2023-04-15T18:09:22.398Z,42.47
2023-04-15T18:11:49.297Z,42.54
2023-04-15T18:14:30.634Z,42.68
2023-04-15T18:17:00.631Z,42.37
2023-04-15T18:19:27.954Z,42.67
2023-04-15T18:21:54.843Z,42.70
2023-04-15T18:24:22.524Z,42.64
2023-04-15T18:26:49.491Z,42.71
2023-04-15T18:29:16.690Z,42.54
2023-04-15T18:31:43.941Z,42.57
2023-04-15T18:34:11.146Z,43.04
2023-04-15T18:36:37.981Z,43.12
2023-04-15T18:39:05.384Z,43.04
2023-04-15T18:41:32.364Z,42.94
2023-04-15T18:43:59.485Z,42.82
2023-04-15T18:46:26.396Z,42.94
2023-04-15T18:48:53.536Z,42.96
2023-04-15T18:51:20.504Z,43.22
2023-04-15T18:53:47.652Z,43.09
2023-04-15T18:56:14.461Z,43.08
2023-04-15T18:59:25.304Z,43.47
2023-04-15T19:01:29.766Z,43.00
2023-04-15T19:03:57.373Z,42.91
2023-04-15T19:06:24.195Z,43.24
2023-04-15T19:08:51.835Z,43.66
2023-04-15T19:11:18.624Z,43.72
2023-04-15T19:13:45.731Z,43.22
2023-04-15T19:16:12.645Z,43.29
2023-04-15T19:18:39.741Z,43.54
2023-04-15T19:21:06.574Z,43.52
2023-04-15T19:23:33.668Z,43.43
2023-04-15T19:26:00.475Z,43.36
2023-04-15T19:28:28.441Z,43.55
2023-04-15T19:30:55.299Z,43.49
2023-04-15T19:33:22.732Z,43.45
2023-04-15T19:35:50.227Z,43.76
2023-04-15T19:38:17.396Z,43.82
2023-04-15T19:40:44.584Z,43.90
2023-04-15T19:43:11.637Z,43.52
2023-04-15T19:45:38.426Z,43.86
2023-04-15T19:48:06.271Z,43.71
2023-04-15T19:50:33.373Z,43.98
2023-04-15T19:53:00.500Z,44.05
2023-04-15T19:55:27.297Z,44.07
2023-04-15T19:57:54.466Z,43.80
2023-04-15T20:00:21.488Z,44.07
2023-04-15T20:02:48.753Z,43.96
2023-04-15T20:05:15.768Z,44.07
2023-04-15T20:07:43.138Z,43.76
2023-04-15T20:10:13.010Z,44.07
2023-04-15T20:12:49.836Z,44.25
2023-04-15T20:15:19.305Z,44.22
2023-04-15T20:17:46.540Z,44.05
2023-04-15T20:20:13.556Z,44.22
2023-04-15T20:22:41.192Z,43.96
2023-04-15T20:25:08.379Z,44.05
2023-04-15T20:27:35.521Z,44.07
2023-04-15T20:30:04.271Z,44.11
2023-04-15T20:32:35.609Z,43.83
2023-04-15T20:35:03.599Z,44.19
2023-04-15T20:37:33.038Z,44.36
2023-04-15T20:40:00.722Z,44.33
2023-04-15T20:42:28.084Z,44.40
2023-04-15T20:44:54.990Z,44.42
2023-04-15T20:47:22.197Z,44.19
2023-04-15T20:49:49.188Z,44.37
2023-04-15T20:52:16.386Z,44.60
2023-04-15T20:54:43.210Z,44.53
2023-04-15T20:57:10.714Z,44.62
2023-04-15T20:59:37.565Z,44.44
2023-04-15T21:02:04.879Z,44.40
2023-04-15T21:04:31.819Z,44.99
2023-04-15T21:06:58.945Z,44.54
2023-04-15T21:09:25.910Z,44.58
2023-04-15T21:12:01.090Z,44.64
2023-04-15T21:14:28.151Z,44.63
2023-04-15T21:16:56.292Z,44.71
2023-04-15T21:19:23.101Z,44.66
2023-04-15T21:21:50.316Z,44.73
2023-04-15T21:24:17.081Z,44.43
2023-04-15T21:26:44.257Z,44.75
2023-04-15T21:29:11.843Z,44.73
2023-04-15T21:31:40.561Z,44.55
2023-04-15T21:34:07.418Z,44.76
2023-04-15T21:36:34.555Z,44.71
2023-04-15T21:39:01.412Z,44.92
2023-04-15T21:41:28.527Z,44.80
2023-04-15T21:43:55.303Z,44.53
2023-04-15T21:46:25.259Z,44.72
2023-04-15T21:48:53.399Z,44.98
2023-04-15T21:51:20.612Z,44.83
2023-04-15T21:53:47.422Z,44.62
2023-04-15T21:56:14.577Z,44.85
2023-04-15T21:58:41.842Z,44.85
2023-04-15T22:01:08.918Z,44.97
2023-04-15T22:03:35.988Z,44.88
2023-04-15T22:06:03.504Z,44.61
2023-04-15T22:08:38.274Z,45.20
2023-04-15T22:11:21.632Z,45.01
2023-04-15T22:13:48.520Z,45.21
2023-04-15T22:16:15.693Z,44.94
2023-04-15T22:18:42.512Z,44.98
2023-04-15T22:21:09.663Z,45.18
2023-04-15T22:23:36.476Z,45.21
2023-04-15T22:26:04.880Z,45.39
2023-04-15T22:28:31.788Z,45.38
2023-04-15T22:30:59.158Z,45.20
2023-04-15T22:33:26.018Z,45.26
2023-04-15T22:35:53.134Z,45.10
2023-04-15T22:38:19.956Z,44.94
2023-04-15T22:40:47.049Z,45.41
2023-04-15T22:43:13.878Z,45.10
2023-04-15T22:45:40.962Z,45.26
2023-04-15T22:48:07.736Z,45.23
2023-04-15T22:50:37.189Z,45.53
2023-04-15T22:53:03.969Z,45.29
2023-04-15T22:55:31.358Z,45.49
2023-04-15T22:57:58.153Z,45.14
2023-04-15T23:00:25.439Z,45.20
2023-04-15T23:02:52.375Z,45.64
2023-04-15T23:05:19.826Z,45.15
2023-04-15T23:07:46.649Z,45.20
2023-04-15T23:10:13.746Z,45.37
2023-04-15T23:12:40.598Z,45.45
2023-04-15T23:15:08.328Z,45.28
2023-04-15T23:17:35.245Z,45.47
2023-04-15T23:20:02.297Z,45.56
2023-04-15T23:22:29.049Z,45.41
2023-04-15T23:24:56.164Z,45.35
2023-04-15T23:27:22.944Z,45.42
2023-04-15T23:29:50.020Z,45.51
2023-04-15T23:32:16.822Z,45.77
2023-04-15T23:34:43.916Z,45.50
2023-04-15T23:37:10.761Z,45.79
2023-04-15T23:39:37.836Z,45.46
2023-04-15T23:42:04.638Z,45.66
2023-04-15T23:44:31.701Z,45.42
2023-04-15T23:46:58.459Z,45.69
2023-04-15T23:49:25.650Z,45.60
2023-04-15T23:51:52.452Z,45.65
2023-04-15T23:54:19.516Z,45.50
2023-04-15T23:56:46.843Z,45.87
2023-04-15T23:59:14.028Z,45.86
